createdAt,value
2022-08-18T00:00:59.702Z,24.4
2022-08-18T00:02:01.431Z,24.4
2022-08-18T00:03:27.186Z,24.4
2022-08-18T00:04:03.293Z,24.4
2022-08-18T00:05:01.389Z,24.4
2022-08-18T00:06:01.210Z,24.3
2022-08-18T00:07:00.913Z,24.3
2022-08-18T00:08:00.813Z,24.3
2022-08-18T00:09:00.509Z,24.3
2022-08-18T00:10:00.230Z,24.3
2022-08-18T00:10:59.899Z,24.3
2022-08-18T00:11:59.939Z,24.3
2022-08-18T00:13:01.305Z,24.3
2022-08-18T00:14:01.923Z,24.3
2022-08-18T00:15:01.275Z,24.3
2022-08-18T00:16:00.683Z,24.3
2022-08-18T00:17:00.456Z,24.2
2022-08-18T00:18:00.805Z,24.1
2022-08-18T00:19:00.500Z,24.1
2022-08-18T00:20:00.213Z,24.1
2022-08-18T00:20:59.969Z,24.1
2022-08-18T00:22:00.268Z,24.1
2022-08-18T00:23:00.013Z,24
2022-08-18T00:23:59.690Z,24
2022-08-18T00:25:01.436Z,24
2022-08-18T00:26:00.913Z,24
2022-08-18T00:27:00.639Z,24
2022-08-18T00:28:00.285Z,23.9
2022-08-18T00:29:00.019Z,23.9
2022-08-18T00:29:59.715Z,23.9
2022-08-18T00:31:01.477Z,23.9
2022-08-18T00:32:00.684Z,23.9
2022-08-18T00:33:00.352Z,23.9
2022-08-18T00:34:00.074Z,23.9
2022-08-18T00:34:59.766Z,23.9
2022-08-18T00:36:01.446Z,23.9
2022-08-18T00:37:01.382Z,23.9
2022-08-18T00:38:00.912Z,23.9
2022-08-18T00:39:00.621Z,23.9
2022-08-18T00:40:00.455Z,23.8
2022-08-18T00:41:00.139Z,23.8
2022-08-18T00:42:00.690Z,23.8
2022-08-18T00:43:00.701Z,23.8
2022-08-18T00:44:00.432Z,23.8
2022-08-18T00:45:00.143Z,23.7
2022-08-18T00:45:59.921Z,23.7
2022-08-18T00:47:03.628Z,23.7
2022-08-18T00:48:00.948Z,23.7
2022-08-18T00:49:00.663Z,23.7
2022-08-18T00:50:00.391Z,23.6
2022-08-18T00:51:00.063Z,23.6
2022-08-18T00:52:07.753Z,23.7
2022-08-18T00:53:00.735Z,23.7
2022-08-18T00:54:00.404Z,23.8
2022-08-18T00:55:00.043Z,23.8
2022-08-18T00:55:59.804Z,23.8
2022-08-18T00:57:08.102Z,23.8
2022-08-18T00:58:01.439Z,23.8
2022-08-18T00:59:01.653Z,23.8
2022-08-18T01:00:01.279Z,23.8
2022-08-18T01:01:01.152Z,23.8
2022-08-18T01:02:08.484Z,23.8
2022-08-18T01:03:01.064Z,23.8
2022-08-18T01:04:00.773Z,23.8
2022-08-18T01:05:00.439Z,23.8
2022-08-18T01:06:00.060Z,23.8
2022-08-18T01:07:05.614Z,23.8
2022-08-18T01:08:01.045Z,23.8
2022-08-18T01:09:00.819Z,23.7
2022-08-18T01:10:01.132Z,23.6
2022-08-18T01:11:00.787Z,23.6
2022-08-18T01:12:44.358Z,23.6
2022-08-18T01:13:01.643Z,23.6
2022-08-18T01:14:01.460Z,23.7
2022-08-18T01:15:01.263Z,23.7
2022-08-18T01:16:01.179Z,23.7
2022-08-18T01:17:00.965Z,23.7
2022-08-18T01:18:00.857Z,23.7
2022-08-18T01:19:00.710Z,23.6
2022-08-18T01:20:00.667Z,23.6
2022-08-18T01:21:00.412Z,23.6
2022-08-18T01:22:00.222Z,23.6
2022-08-18T01:22:59.994Z,23.5
2022-08-18T01:24:00.705Z,23.5
2022-08-18T01:25:00.380Z,23.5
2022-08-18T01:26:00.439Z,23.4
2022-08-18T01:27:00.227Z,23.4
2022-08-18T01:28:00.926Z,23.3
2022-08-18T01:29:00.827Z,23.3
2022-08-18T01:30:00.541Z,23.3
2022-08-18T01:31:01.266Z,23.3
2022-08-18T01:32:00.966Z,23.2
2022-08-18T01:33:02.068Z,23.2
2022-08-18T01:34:01.271Z,23.2
2022-08-18T01:35:00.769Z,23.1
2022-08-18T01:36:00.465Z,23.1
2022-08-18T01:37:00.404Z,23.1
2022-08-18T01:38:00.067Z,23.1
2022-08-18T01:38:59.793Z,23.1
2022-08-18T01:41:24.296Z,23.1
2022-08-18T01:41:25.705Z,23.1
2022-08-18T01:42:00.943Z,23.1
2022-08-18T01:43:00.715Z,23.1
2022-08-18T01:44:00.530Z,23.1
2022-08-18T01:45:00.511Z,23.2
2022-08-18T01:46:01.753Z,23.2
2022-08-18T01:47:01.354Z,23.2
2022-08-18T01:48:01.787Z,23.2
2022-08-18T01:49:01.084Z,23.2
2022-08-18T01:50:00.761Z,23.2
2022-08-18T01:51:00.562Z,23.2
2022-08-18T01:52:00.532Z,23.1
2022-08-18T01:53:00.267Z,23.1
2022-08-18T01:53:59.982Z,23.1
2022-08-18T01:55:00.195Z,23.2
2022-08-18T01:55:59.901Z,23.2
2022-08-18T01:56:59.581Z,23.2
2022-08-18T01:58:01.329Z,23.2
2022-08-18T01:59:01.058Z,23.3
2022-08-18T02:00:00.723Z,23.3
2022-08-18T02:01:00.433Z,23.3
2022-08-18T02:02:00.257Z,23.3
2022-08-18T02:03:02.638Z,23.3
2022-08-18T02:04:23.722Z,23.2
2022-08-18T02:05:00.769Z,23.2
2022-08-18T02:06:00.792Z,23.2
2022-08-18T02:07:00.554Z,23.1
2022-08-18T02:08:01.610Z,23.1
2022-08-18T02:09:00.786Z,23.1
2022-08-18T02:10:00.493Z,23.1
2022-08-18T02:11:01.580Z,23.1
2022-08-18T02:12:01.036Z,23.1
2022-08-18T02:13:00.910Z,23.1
2022-08-18T02:14:00.605Z,23.1
2022-08-18T02:15:00.327Z,23.1
2022-08-18T02:16:00.444Z,23.1
2022-08-18T02:17:02.347Z,23.1
2022-08-18T02:18:00.948Z,23
2022-08-18T02:19:00.666Z,23
2022-08-18T02:20:00.328Z,23
2022-08-18T02:21:00.153Z,23
2022-08-18T02:22:00.654Z,23
2022-08-18T02:23:00.462Z,23
2022-08-18T02:24:00.261Z,23
2022-08-18T02:25:00.014Z,22.9
2022-08-18T02:25:59.784Z,22.9
2022-08-18T02:27:01.534Z,22.9
2022-08-18T02:28:01.179Z,22.8
2022-08-18T02:29:00.927Z,22.8
2022-08-18T02:30:00.623Z,22.8
2022-08-18T02:31:00.408Z,22.7
2022-08-18T02:32:00.414Z,22.7
2022-08-18T02:33:00.610Z,22.7
2022-08-18T02:34:00.502Z,22.6
2022-08-18T02:35:00.159Z,22.6
2022-08-18T02:35:59.847Z,22.6
2022-08-18T02:37:01.570Z,22.7
2022-08-18T02:38:01.223Z,22.7
2022-08-18T02:39:01.328Z,22.8
2022-08-18T02:40:01.136Z,22.8
2022-08-18T02:41:00.911Z,22.8
2022-08-18T02:42:00.807Z,22.8
2022-08-18T02:43:00.603Z,22.8
2022-08-18T02:44:00.323Z,22.7
2022-08-18T02:45:00.033Z,22.6
2022-08-18T02:46:00.196Z,22.5
2022-08-18T02:47:00.714Z,22.4
2022-08-18T02:48:01.686Z,22.3
2022-08-18T02:49:01.465Z,22.2
2022-08-18T02:50:01.166Z,22.1
2022-08-18T02:51:00.851Z,22.1
2022-08-18T02:52:00.558Z,22
2022-08-18T02:53:03.235Z,22
2022-08-18T02:54:00.711Z,22
2022-08-18T02:55:00.386Z,22
2022-08-18T02:56:00.916Z,22
2022-08-18T02:57:00.689Z,22
2022-08-18T02:58:06.411Z,22.1
2022-08-18T02:59:01.586Z,22.1
2022-08-18T03:00:01.124Z,22.1
2022-08-18T03:01:00.851Z,22.1
2022-08-18T03:02:00.572Z,22.1
2022-08-18T03:03:10.200Z,22.1
2022-08-18T03:04:01.269Z,22.1
2022-08-18T03:05:00.967Z,22.2
2022-08-18T03:06:00.661Z,22.2
2022-08-18T03:07:00.374Z,22.1
2022-08-18T03:08:14.153Z,22.2
2022-08-18T03:09:01.216Z,22.3
2022-08-18T03:10:31.870Z,22.3
2022-08-18T03:11:00.991Z,22.3
2022-08-18T03:12:00.688Z,22.4
2022-08-18T03:13:15.041Z,22.4
2022-08-18T03:14:01.228Z,22.5
2022-08-18T03:15:00.854Z,22.4
2022-08-18T03:16:00.612Z,22.3
2022-08-18T03:17:00.392Z,22.3
2022-08-18T03:18:15.391Z,22.3
2022-08-18T03:19:01.354Z,22.1
2022-08-18T03:20:01.073Z,22.1
2022-08-18T03:21:01.164Z,22.1
2022-08-18T03:22:02.795Z,22.1
2022-08-18T03:23:05.536Z,22.1
2022-08-18T03:24:02.808Z,22.2
2022-08-18T03:25:01.403Z,22.2
2022-08-18T03:26:01.365Z,22.3
2022-08-18T03:27:01.109Z,22.3
2022-08-18T03:28:00.895Z,22.3
2022-08-18T03:29:00.615Z,22.4
2022-08-18T03:30:00.315Z,22.4
2022-08-18T03:30:59.958Z,22.4
2022-08-18T03:31:59.697Z,22.4
2022-08-18T03:33:01.881Z,22.5
2022-08-18T03:34:00.759Z,22.5
2022-08-18T03:35:01.168Z,22.5
2022-08-18T03:36:00.956Z,22.4
2022-08-18T03:37:00.555Z,22.4
2022-08-18T03:38:00.886Z,22.4
2022-08-18T03:39:00.988Z,22.4
2022-08-18T03:40:00.780Z,22.4
2022-08-18T03:41:00.494Z,22.3
2022-08-18T03:42:01.902Z,22.3
2022-08-18T03:43:02.165Z,22.3
2022-08-18T03:44:01.031Z,22.3
2022-08-18T03:45:00.902Z,22.2
2022-08-18T03:46:02.906Z,22.2
2022-08-18T03:47:00.733Z,22.2
2022-08-18T03:48:00.410Z,22.1
2022-08-18T03:49:00.129Z,22.1
2022-08-18T03:49:59.941Z,22.1
2022-08-18T03:51:02.729Z,22.1
2022-08-18T03:52:01.626Z,22.1
2022-08-18T03:53:00.556Z,22.1
2022-08-18T03:54:00.199Z,22.1
2022-08-18T03:54:59.934Z,22.2
2022-08-18T03:56:00.888Z,22.2
2022-08-18T03:57:00.691Z,22.2
2022-08-18T03:58:00.391Z,22.2
2022-08-18T03:59:00.133Z,22.1
2022-08-18T04:00:00.000Z,22.1
2022-08-18T04:00:59.891Z,22.1
2022-08-18T04:01:59.784Z,22.2
2022-08-18T04:03:01.548Z,22.2
2022-08-18T04:04:01.252Z,22.3
2022-08-18T04:05:01.201Z,22.3
2022-08-18T04:06:01.211Z,22.3
2022-08-18T04:07:02.168Z,22.3
2022-08-18T04:08:00.863Z,22.4
2022-08-18T04:09:00.576Z,22.4
2022-08-18T04:10:00.278Z,22.4
2022-08-18T04:11:00.165Z,22.4
2022-08-18T04:11:59.863Z,22.4
2022-08-18T04:13:01.605Z,22.4
2022-08-18T04:14:02.510Z,22.4
2022-08-18T04:15:01.293Z,22.5
2022-08-18T04:16:01.018Z,22.5
2022-08-18T04:17:00.676Z,22.5
2022-08-18T04:18:03.450Z,22.5
2022-08-18T04:19:01.462Z,22.5
2022-08-18T04:20:00.946Z,22.5
2022-08-18T04:21:00.792Z,22.5
2022-08-18T04:22:00.563Z,22.5
2022-08-18T04:23:00.259Z,22.5
2022-08-18T04:23:59.946Z,22.5
2022-08-18T04:24:59.735Z,22.5
2022-08-18T04:26:01.533Z,22.5
2022-08-18T04:27:01.286Z,22.4
2022-08-18T04:28:01.129Z,22.4
2022-08-18T04:29:00.797Z,22.3
2022-08-18T04:30:00.498Z,22.3
2022-08-18T04:31:00.341Z,22.3
2022-08-18T04:32:00.109Z,22.3
2022-08-18T04:32:59.807Z,22.3
2022-08-18T04:34:01.536Z,22.2
2022-08-18T04:35:02.901Z,22.2
2022-08-18T04:36:01.259Z,22.1
2022-08-18T04:37:00.947Z,22.1
2022-08-18T04:38:00.672Z,22.1
2022-08-18T04:39:00.348Z,22.1
2022-08-18T04:40:00.118Z,22.1
2022-08-18T04:40:59.951Z,22.1
2022-08-18T04:41:59.974Z,22.2
2022-08-18T04:42:59.656Z,22.3
2022-08-18T04:44:01.313Z,22.3
2022-08-18T04:45:01.000Z,22.4
2022-08-18T04:46:00.665Z,22.5
2022-08-18T04:47:00.405Z,22.6
2022-08-18T04:48:00.036Z,22.6
2022-08-18T04:49:01.124Z,22.8
2022-08-18T04:50:00.793Z,22.8
2022-08-18T04:51:00.839Z,22.9
2022-08-18T04:52:37.208Z,23
2022-08-18T04:53:01.893Z,23
2022-08-18T04:54:03.810Z,23
2022-08-18T04:55:00.681Z,23
2022-08-18T04:56:00.581Z,23.1
2022-08-18T04:57:00.273Z,23.1
2022-08-18T04:57:59.951Z,23
2022-08-18T04:59:08.099Z,23
2022-08-18T05:00:00.600Z,23
2022-08-18T05:01:00.537Z,23
2022-08-18T05:02:00.325Z,23
2022-08-18T05:02:59.925Z,23
2022-08-18T05:04:12.508Z,23.1
2022-08-18T05:05:00.635Z,23.3
2022-08-18T05:06:00.991Z,23.4
2022-08-18T05:07:00.645Z,23.6
2022-08-18T05:08:00.340Z,23.7
2022-08-18T05:09:16.688Z,23.8
2022-08-18T05:10:00.969Z,23.8
2022-08-18T05:11:04.072Z,23.9
2022-08-18T05:12:00.884Z,24
2022-08-18T05:13:00.656Z,24
2022-08-18T05:14:00.374Z,23.9
2022-08-18T05:15:00.097Z,23.8
2022-08-18T05:16:11.004Z,23.9
2022-08-18T05:17:01.109Z,23.9
2022-08-18T05:18:00.797Z,23.8
2022-08-18T05:19:00.915Z,23.8
2022-08-18T05:20:01.856Z,23.7
2022-08-18T05:21:00.827Z,23.7
2022-08-18T05:22:02.996Z,23.7
2022-08-18T05:23:02.715Z,23.8
2022-08-18T05:24:01.271Z,23.8
2022-08-18T05:25:00.969Z,24
2022-08-18T05:26:00.624Z,24
2022-08-18T05:27:00.586Z,24.1
2022-08-18T05:28:00.271Z,24.3
2022-08-18T05:29:18.170Z,24.6
2022-08-18T05:30:01.937Z,24.8
2022-08-18T05:31:01.234Z,25
2022-08-18T05:32:01.002Z,25.1
2022-08-18T05:33:01.249Z,25.1
2022-08-18T05:34:00.949Z,25.1
2022-08-18T05:35:00.632Z,25.2
2022-08-18T05:36:01.145Z,25.4
2022-08-18T05:37:00.827Z,25.6
2022-08-18T05:38:00.541Z,25.8
2022-08-18T05:39:00.235Z,26
2022-08-18T05:39:59.993Z,26.1
2022-08-18T05:40:59.841Z,26.1
2022-08-18T05:42:01.781Z,26.3
2022-08-18T05:43:01.449Z,26.3
2022-08-18T05:44:01.456Z,26.4
2022-08-18T05:45:01.151Z,26.5
2022-08-18T05:46:00.972Z,26.6
2022-08-18T05:47:00.693Z,26.6
2022-08-18T05:48:00.463Z,26.6
2022-08-18T05:49:00.203Z,26.6
2022-08-18T05:49:59.843Z,26.6
2022-08-18T05:51:01.514Z,26.6
2022-08-18T05:52:00.878Z,26.7
2022-08-18T05:53:00.642Z,26.8
2022-08-18T05:54:00.317Z,27
2022-08-18T05:54:59.954Z,27
2022-08-18T05:55:59.603Z,27.2
2022-08-18T05:57:01.369Z,27.4
2022-08-18T05:58:01.079Z,27.6
2022-08-18T05:59:00.731Z,27.8
2022-08-18T06:00:00.369Z,27.9
2022-08-18T06:01:00.319Z,28.1
2022-08-18T06:02:00.641Z,28.3
2022-08-18T06:03:00.444Z,28.3
2022-08-18T06:04:00.207Z,28.5
2022-08-18T06:04:59.850Z,28.5
2022-08-18T06:06:01.653Z,28.6
2022-08-18T06:07:00.625Z,28.7
2022-08-18T06:08:00.268Z,28.8
2022-08-18T06:08:59.922Z,28.8
2022-08-18T06:09:59.998Z,28.8
2022-08-18T06:11:00.006Z,28.8
2022-08-18T06:11:59.918Z,28.9
2022-08-18T06:12:59.755Z,29
2022-08-18T06:14:01.639Z,29.1
2022-08-18T06:15:01.272Z,29.1
2022-08-18T06:16:01.154Z,29.3
2022-08-18T06:17:00.911Z,29.5
2022-08-18T06:18:00.589Z,29.5
2022-08-18T06:19:00.303Z,29.3
2022-08-18T06:20:00.334Z,29
2022-08-18T06:21:00.137Z,28.5
2022-08-18T06:22:00.247Z,28.1
2022-08-18T06:22:59.928Z,27.7
2022-08-18T06:23:59.733Z,27.4
2022-08-18T06:25:01.495Z,27.1
2022-08-18T06:26:01.281Z,26.8
2022-08-18T06:27:00.758Z,26.6
2022-08-18T06:28:00.393Z,26.4
2022-08-18T06:29:00.183Z,26.2
2022-08-18T06:30:00.981Z,26.1
2022-08-18T06:31:00.891Z,26
2022-08-18T06:32:00.588Z,26
2022-08-18T06:33:00.249Z,25.8
2022-08-18T06:33:59.886Z,25.8
2022-08-18T06:35:00.181Z,25.7
2022-08-18T06:35:59.962Z,25.6
2022-08-18T06:36:59.704Z,25.7
2022-08-18T06:38:01.545Z,25.6
2022-08-18T06:39:01.265Z,25.6
2022-08-18T06:40:02.339Z,25.6
2022-08-18T06:41:01.062Z,25.6
2022-08-18T06:42:00.751Z,25.6
2022-08-18T06:43:02.321Z,25.6
2022-08-18T06:44:01.388Z,25.7
2022-08-18T06:45:07.027Z,25.6
2022-08-18T06:46:01.091Z,25.7
2022-08-18T06:47:00.817Z,25.8
2022-08-18T06:48:00.481Z,25.8
2022-08-18T06:49:00.183Z,25.8
2022-08-18T06:50:07.533Z,25.8
2022-08-18T06:51:00.930Z,25.8
2022-08-18T06:52:00.610Z,25.9
2022-08-18T06:53:00.320Z,25.9
2022-08-18T06:54:00.032Z,25.9
2022-08-18T06:55:09.138Z,26
2022-08-18T06:56:00.740Z,26
2022-08-18T06:57:00.414Z,26
2022-08-18T06:58:00.064Z,26
2022-08-18T06:58:59.746Z,26.1
2022-08-18T07:00:10.319Z,26.1
2022-08-18T07:01:01.567Z,26.1
2022-08-18T07:02:01.118Z,26.1
2022-08-18T07:03:01.049Z,26.1
2022-08-18T07:04:01.069Z,26.2
2022-08-18T07:05:12.238Z,26.1
2022-08-18T07:06:00.723Z,26.2
2022-08-18T07:07:00.421Z,26.2
2022-08-18T07:08:00.134Z,26.3
2022-08-18T07:08:59.810Z,26.3
2022-08-18T07:10:15.749Z,26.3
2022-08-18T07:11:01.562Z,26.3
2022-08-18T07:12:01.193Z,26.3
2022-08-18T07:13:01.201Z,26.4
2022-08-18T07:14:16.034Z,26.4
2022-08-18T07:15:00.998Z,26.4
2022-08-18T07:16:00.858Z,26.4
2022-08-18T07:17:00.714Z,26.5
2022-08-18T07:18:00.615Z,26.5
2022-08-18T07:19:00.401Z,26.5
2022-08-18T07:20:00.112Z,26.5
2022-08-18T07:20:59.936Z,26.6
2022-08-18T07:21:59.693Z,26.6
2022-08-18T07:23:01.361Z,26.7
2022-08-18T07:24:23.150Z,26.7
2022-08-18T07:25:05.258Z,26.8
2022-08-18T07:26:00.744Z,26.8
2022-08-18T07:27:00.409Z,26.9
2022-08-18T07:28:00.146Z,27
2022-08-18T07:28:59.939Z,27
2022-08-18T07:29:59.747Z,27
2022-08-18T07:31:16.451Z,27.1
2022-08-18T07:32:01.097Z,27.1
2022-08-18T07:33:00.794Z,27.1
2022-08-18T07:34:00.527Z,27.1
2022-08-18T07:35:00.334Z,27.1
2022-08-18T07:35:59.997Z,27.1
2022-08-18T07:36:59.677Z,27.1
2022-08-18T07:38:18.660Z,27.1
2022-08-18T07:39:02.984Z,27.1
2022-08-18T07:40:01.691Z,27.1
2022-08-18T07:41:00.741Z,27.2
2022-08-18T07:42:00.800Z,27.3
2022-08-18T07:43:02.373Z,27.3
2022-08-18T07:44:01.477Z,27.4
2022-08-18T07:45:01.168Z,27.5
2022-08-18T07:46:00.653Z,27.5
2022-08-18T07:47:00.398Z,27.5
2022-08-18T07:48:10.866Z,27.6
2022-08-18T07:49:01.092Z,27.6
2022-08-18T07:50:18.626Z,27.6
2022-08-18T07:51:05.251Z,27.7
2022-08-18T07:52:01.539Z,27.7
2022-08-18T07:53:01.225Z,27.8
2022-08-18T07:54:01.036Z,27.8
2022-08-18T07:55:00.867Z,27.8
2022-08-18T07:56:00.542Z,27.8
2022-08-18T07:57:00.241Z,27.8
2022-08-18T07:58:00.078Z,27.8
2022-08-18T07:58:59.997Z,27.8
2022-08-18T07:59:59.736Z,27.8
2022-08-18T08:01:01.883Z,27.7
2022-08-18T08:02:01.193Z,27.7
2022-08-18T08:03:00.993Z,27.7
2022-08-18T08:04:00.699Z,27.8
2022-08-18T08:05:00.464Z,27.8
2022-08-18T08:06:00.220Z,27.8
2022-08-18T08:07:23.016Z,27.9
2022-08-18T08:08:00.896Z,27.9
2022-08-18T08:09:00.925Z,28
2022-08-18T08:10:00.642Z,28
2022-08-18T08:11:00.417Z,28
2022-08-18T08:12:00.133Z,28.1
2022-08-18T08:13:08.880Z,28.2
2022-08-18T08:14:01.374Z,28.3
2022-08-18T08:15:01.032Z,28.3
2022-08-18T08:16:00.708Z,28.3
2022-08-18T08:17:00.506Z,28.3
2022-08-18T08:18:00.276Z,28.3
2022-08-18T08:18:59.916Z,28.3
2022-08-18T08:20:01.229Z,28.4
2022-08-18T08:21:00.593Z,28.4
2022-08-18T08:22:00.332Z,28.5
2022-08-18T08:23:00.118Z,28.5
2022-08-18T08:24:00.146Z,28.5
2022-08-18T08:24:59.807Z,28.5
2022-08-18T08:26:01.810Z,28.5
2022-08-18T08:27:00.838Z,28.4
2022-08-18T08:28:00.963Z,28.4
2022-08-18T08:29:00.645Z,28.4
2022-08-18T08:30:00.312Z,28.4
2022-08-18T08:31:13.837Z,28.4
2022-08-18T08:32:00.675Z,28.4
2022-08-18T08:33:00.376Z,28.3
2022-08-18T08:34:04.035Z,28.3
2022-08-18T08:35:01.094Z,28.3
2022-08-18T08:36:00.799Z,28.3
2022-08-18T08:37:00.493Z,28.3
2022-08-18T08:38:17.170Z,28.3
2022-08-18T08:39:01.644Z,28.3
2022-08-18T08:40:01.378Z,28.3
2022-08-18T08:41:02.275Z,28.4
2022-08-18T08:42:30.214Z,28.4
2022-08-18T08:43:01.042Z,28.5
2022-08-18T08:44:00.756Z,28.5
2022-08-18T08:45:00.645Z,28.5
2022-08-18T08:46:05.866Z,28.5
2022-08-18T08:47:01.096Z,28.5
2022-08-18T08:48:08.435Z,28.5
2022-08-18T08:49:00.777Z,28.6
2022-08-18T08:50:00.997Z,28.6
2022-08-18T08:51:09.804Z,28.8
2022-08-18T08:52:01.389Z,28.8
2022-08-18T08:53:01.075Z,28.9
2022-08-18T08:54:00.784Z,29
2022-08-18T08:55:00.524Z,29
2022-08-18T08:56:13.362Z,29.1
2022-08-18T08:57:01.232Z,29.1
2022-08-18T08:58:00.892Z,29.3
2022-08-18T08:59:00.544Z,29.4
2022-08-18T09:00:00.232Z,29.4
2022-08-18T09:01:15.642Z,29.5
2022-08-18T09:02:01.137Z,29.5
2022-08-18T09:03:01.515Z,29.5
2022-08-18T09:04:00.894Z,29.4
2022-08-18T09:05:09.586Z,29.5
2022-08-18T09:06:16.125Z,29.4
2022-08-18T09:07:01.005Z,29.4
2022-08-18T09:08:00.671Z,29.4
2022-08-18T09:09:00.327Z,29.3
2022-08-18T09:10:00.398Z,29.4
2022-08-18T09:11:00.146Z,29.4
2022-08-18T09:11:59.897Z,29.5
2022-08-18T09:12:59.606Z,29.5
2022-08-18T09:14:01.399Z,29.6
2022-08-18T09:15:01.175Z,29.6
2022-08-18T09:16:00.861Z,29.7
2022-08-18T09:17:00.795Z,29.7
2022-08-18T09:18:00.556Z,29.7
2022-08-18T09:19:00.297Z,29.7
2022-08-18T09:19:59.963Z,29.6
2022-08-18T09:20:59.670Z,29.6
2022-08-18T09:22:01.405Z,29.6
2022-08-18T09:23:01.108Z,29.7
2022-08-18T09:24:00.819Z,29.7
2022-08-18T09:25:00.613Z,29.7
2022-08-18T09:26:00.314Z,29.7
2022-08-18T09:27:00.249Z,29.6
2022-08-18T09:28:10.937Z,29.6
2022-08-18T09:29:00.942Z,29.7
2022-08-18T09:30:00.708Z,29.8
2022-08-18T09:31:00.877Z,29.9
2022-08-18T09:32:00.988Z,30
2022-08-18T09:33:00.678Z,30
2022-08-18T09:34:06.679Z,30
2022-08-18T09:35:00.832Z,30
2022-08-18T09:36:00.500Z,30
2022-08-18T09:37:00.285Z,30.1
2022-08-18T09:37:59.927Z,30.2
2022-08-18T09:39:00.131Z,30.3
2022-08-18T09:39:59.958Z,30.5
2022-08-18T09:41:03.087Z,30.5
2022-08-18T09:42:01.439Z,30.6
2022-08-18T09:44:01.159Z,30.7
2022-08-18T09:45:01.121Z,30.7
2022-08-18T09:47:00.778Z,30.6
2022-08-18T09:48:00.700Z,30.6
2022-08-18T09:49:00.378Z,30.5
2022-08-18T09:50:01.967Z,30.5
2022-08-18T09:51:01.139Z,30.5
2022-08-18T09:52:02.164Z,30.4
2022-08-18T09:54:01.100Z,30.4
2022-08-18T09:55:00.811Z,30.4
2022-08-18T09:57:00.927Z,30.6
2022-08-18T09:58:01.990Z,30.8
2022-08-18T09:59:01.033Z,31
2022-08-18T10:00:01.414Z,31
2022-08-18T10:01:01.045Z,31.1
2022-08-18T10:02:00.728Z,31.1
2022-08-18T10:03:01.022Z,31.2
2022-08-18T10:04:01.369Z,31.3
2022-08-18T10:05:01.382Z,31.3
2022-08-18T10:06:01.404Z,31.4
2022-08-18T10:07:01.059Z,31.4
2022-08-18T10:08:00.905Z,31.5
2022-08-18T10:09:00.828Z,31.5
2022-08-18T10:10:00.959Z,31.5
2022-08-18T10:11:09.344Z,31.6
2022-08-18T10:12:01.129Z,31.6
2022-08-18T10:13:01.397Z,31.7
2022-08-18T10:14:01.269Z,31.7
2022-08-18T10:15:00.946Z,31.7
2022-08-18T10:16:10.299Z,31.6
2022-08-18T10:17:23.393Z,31.7
2022-08-18T10:18:00.971Z,31.8
2022-08-18T10:19:00.644Z,31.8
2022-08-18T10:20:00.898Z,31.9
2022-08-18T10:21:00.592Z,32
2022-08-18T10:22:00.476Z,32
2022-08-18T10:23:00.138Z,32
2022-08-18T10:24:31.795Z,32.1
2022-08-18T10:25:20.872Z,32.1
2022-08-18T10:26:04.384Z,32.1
2022-08-18T10:27:00.984Z,32.1
2022-08-18T10:28:00.726Z,32.1
2022-08-18T10:29:00.433Z,32.1
2022-08-18T10:30:00.145Z,32.1
2022-08-18T10:31:06.493Z,32
2022-08-18T10:32:05.125Z,32
2022-08-18T10:33:03.109Z,32
2022-08-18T10:34:00.841Z,32
2022-08-18T10:35:01.125Z,32
2022-08-18T10:36:00.865Z,32
2022-08-18T10:37:08.165Z,32
2022-08-18T10:38:00.937Z,32
2022-08-18T10:39:00.678Z,32
2022-08-18T10:40:00.755Z,32
2022-08-18T10:41:03.695Z,32
2022-08-18T10:42:11.730Z,32
2022-08-18T10:43:00.838Z,31.9
2022-08-18T10:44:00.479Z,31.8
2022-08-18T10:45:00.247Z,31.8
2022-08-18T10:46:25.674Z,31.8
2022-08-18T10:47:13.500Z,31.8
2022-08-18T10:48:00.742Z,31.8
2022-08-18T10:49:00.419Z,31.8
2022-08-18T10:50:01.134Z,31.8
2022-08-18T10:51:00.846Z,32
2022-08-18T10:52:16.204Z,32
2022-08-18T10:53:24.027Z,32
2022-08-18T10:54:00.909Z,32
2022-08-18T10:55:00.742Z,32
2022-08-18T10:56:01.187Z,32
2022-08-18T10:57:01.540Z,32
2022-08-18T10:58:01.611Z,32.1
2022-08-18T10:59:01.031Z,32.1
2022-08-18T11:00:00.724Z,32.2
2022-08-18T11:01:00.644Z,32.2
2022-08-18T11:02:00.423Z,32.2
2022-08-18T11:03:29.914Z,32.2
2022-08-18T11:04:14.097Z,32.3
2022-08-18T11:05:00.704Z,32.3
2022-08-18T11:06:00.356Z,32.4
2022-08-18T11:07:00.531Z,32.4
2022-08-18T11:08:00.541Z,32.5
2022-08-18T11:09:00.382Z,32.5
2022-08-18T11:10:28.432Z,32.5
2022-08-18T11:11:37.204Z,32.5
2022-08-18T11:12:01.822Z,32.5
2022-08-18T11:13:02.919Z,32.5
2022-08-18T11:14:00.222Z,32.5
2022-08-18T11:15:01.308Z,32.5
2022-08-18T11:16:01.267Z,32.6
2022-08-18T11:17:00.640Z,32.6
2022-08-18T11:18:00.367Z,32.6
2022-08-18T11:19:00.330Z,32.6
2022-08-18T11:20:00.346Z,32.6
2022-08-18T11:21:01.082Z,32.7
2022-08-18T11:22:00.769Z,32.7
2022-08-18T11:23:00.450Z,32.6
2022-08-18T11:24:00.500Z,32.6
2022-08-18T11:25:01.321Z,32.6
2022-08-18T11:26:01.438Z,32.6
2022-08-18T11:27:01.218Z,32.7
2022-08-18T11:28:01.054Z,32.7
2022-08-18T11:29:01.160Z,32.7
2022-08-18T11:30:00.617Z,32.6
2022-08-18T11:31:00.464Z,32.6
2022-08-18T11:32:01.960Z,32.6
2022-08-18T11:33:02.979Z,32.6
2022-08-18T11:34:01.151Z,32.6
2022-08-18T11:35:00.949Z,32.6
2022-08-18T11:36:01.249Z,32.6
2022-08-18T11:37:00.894Z,32.5
2022-08-18T11:38:00.688Z,32.5
2022-08-18T11:39:00.392Z,32.5
2022-08-18T11:40:00.237Z,32.5
2022-08-18T11:41:09.819Z,32.5
2022-08-18T11:42:00.696Z,32.5
2022-08-18T11:43:01.020Z,32.6
2022-08-18T11:44:01.023Z,32.6
2022-08-18T11:45:00.928Z,32.7
2022-08-18T11:46:00.809Z,32.8
2022-08-18T11:47:01.282Z,32.8
2022-08-18T11:48:00.960Z,32.8
2022-08-18T11:49:00.945Z,32.8
2022-08-18T11:50:03.551Z,32.8
2022-08-18T11:51:00.999Z,32.8
2022-08-18T11:52:02.408Z,32.7
2022-08-18T11:53:00.997Z,32.7
2022-08-18T11:54:01.284Z,32.7
2022-08-18T11:55:00.983Z,32.8
2022-08-18T11:56:00.704Z,32.9
2022-08-18T11:57:01.353Z,32.9
2022-08-18T11:58:00.902Z,33
2022-08-18T11:59:00.924Z,33
2022-08-18T12:00:01.284Z,33
2022-08-18T12:01:01.434Z,32.9
2022-08-18T12:02:01.035Z,32.9
2022-08-18T12:03:01.449Z,32.9
2022-08-18T12:04:00.903Z,32.9
2022-08-18T12:06:01.069Z,32.9
2022-08-18T12:07:00.760Z,32.9
2022-08-18T12:08:01.849Z,32.9
2022-08-18T12:09:01.511Z,32.9
2022-08-18T12:10:17.263Z,32.8
2022-08-18T12:11:00.781Z,32.9
2022-08-18T12:12:01.064Z,32.8
2022-08-18T12:13:04.164Z,32.8
2022-08-18T12:14:01.314Z,32.8
2022-08-18T12:15:14.040Z,32.8
2022-08-18T12:16:01.969Z,32.8
2022-08-18T12:17:01.886Z,32.8
2022-08-18T12:18:05.694Z,32.8
2022-08-18T12:19:00.763Z,32.7
2022-08-18T12:20:01.369Z,32.7
2022-08-18T12:21:02.705Z,32.6
2022-08-18T12:22:11.597Z,32.6
2022-08-18T12:23:09.098Z,32.6
2022-08-18T12:24:00.556Z,32.5
2022-08-18T12:25:00.465Z,32.5
2022-08-18T12:26:00.507Z,32.5
2022-08-18T12:27:01.086Z,32.5
2022-08-18T12:28:11.524Z,32.4
2022-08-18T12:29:01.384Z,32.3
2022-08-18T12:30:01.432Z,32.3
2022-08-18T12:31:01.232Z,32.3
2022-08-18T12:32:01.337Z,32.3
2022-08-18T12:33:15.968Z,32.2
2022-08-18T12:34:01.564Z,32.1
2022-08-18T12:35:07.665Z,32.1
2022-08-18T12:36:01.293Z,32.1
2022-08-18T12:37:01.004Z,32.1
2022-08-18T12:38:11.376Z,32.1
2022-08-18T12:39:00.885Z,32.1
2022-08-18T12:40:01.587Z,32.1
2022-08-18T12:41:01.431Z,32
2022-08-18T12:42:01.072Z,32
2022-08-18T12:43:00.924Z,32
2022-08-18T12:44:00.719Z,32
2022-08-18T12:45:00.904Z,32
2022-08-18T12:46:02.061Z,31.9
2022-08-18T12:47:01.359Z,31.9
2022-08-18T12:48:00.845Z,31.9
2022-08-18T12:49:01.015Z,31.8
2022-08-18T12:50:01.209Z,31.8
2022-08-18T12:51:01.093Z,31.8
2022-08-18T12:52:03.570Z,31.8
2022-08-18T12:53:00.612Z,31.8
2022-08-18T12:54:00.467Z,31.8
2022-08-18T12:55:00.279Z,31.8
2022-08-18T12:56:00.059Z,31.8
2022-08-18T12:57:00.171Z,31.8
2022-08-18T12:58:00.103Z,31.7
2022-08-18T12:58:59.877Z,31.7
2022-08-18T12:59:59.523Z,31.7
2022-08-18T13:01:01.628Z,31.6
2022-08-18T13:02:01.519Z,31.6
2022-08-18T13:03:01.042Z,31.6
2022-08-18T13:04:11.202Z,31.5
2022-08-18T13:05:00.750Z,31.5
2022-08-18T13:06:00.532Z,31.5
2022-08-18T13:07:04.743Z,31.5
2022-08-18T13:08:04.521Z,31.4
2022-08-18T13:09:00.856Z,31.3
2022-08-18T13:10:00.987Z,31.3
2022-08-18T13:11:14.536Z,31.3
2022-08-18T13:12:01.731Z,31.3
2022-08-18T13:13:01.751Z,31.3
2022-08-18T13:14:00.689Z,31.2
2022-08-18T13:15:01.002Z,31.2
2022-08-18T13:16:03.403Z,31.2
2022-08-18T13:17:00.645Z,31.2
2022-08-18T13:18:01.559Z,31.2
2022-08-18T13:19:01.238Z,31.1
2022-08-18T13:20:01.588Z,31.2
2022-08-18T13:21:00.845Z,31.2
2022-08-18T13:22:00.645Z,31.2
2022-08-18T13:23:00.355Z,31.1
2022-08-18T13:24:00.031Z,31.1
2022-08-18T13:25:00.051Z,31.1
2022-08-18T13:26:01.958Z,31.1
2022-08-18T13:27:01.196Z,31.1
2022-08-18T13:28:01.700Z,31.1
2022-08-18T13:29:00.710Z,31.1
2022-08-18T13:30:00.812Z,31